Sanko Maru — JG5227 — position and weather

sailwx.info

Track history (hours):
 
Tides and Currents Weather Stations Pressure Air Temp Water Temp Dewpoint Dewpoint Depression Visibility Wind Speed Wind Dir Waves Ship Positions

Sanko Maru

Last reported at 2018-Jun-24 10:00 UTC. Time now 2018-Jun-25 05:49 UTC.
Position N 34°58' E 139°23'.

Length 104 m; draft 5 m.

Type: Ship (hazmat cat A). MMSI: 431100146.

Date/timePositionNaut miles runAvg speedWind from/ knotsBaromVisibWave heightAir tempDewpointWater temp
2018-Jun-24 10:00N 34°58' E 139°23'611.3
2018-Jun-24 09:29N 35°01' E 139°29'611.6
2018-Jun-24 09:00N 35°04' E 139°35'612.3
2018-Jun-24 08:30N 35°07' E 139°41'612.3
2018-Jun-24 08:00N 35°12' E 139°46'612.1
2018-Jun-24 07:30N 35°18' E 139°44'612.6
2018-Jun-24 07:00N 35°24' E 139°43'713.3
2018-Jun-24 06:30N 35°28' E 139°49'713.5
2018-Jun-24 05:59N 35°32' E 139°56'2 0.4
2018-Jun-23 23:26N 35°33' E 139°59'512.2
2018-Jun-23 23:00N 35°30' E 139°54'612.6
2018-Jun-23 22:30N 35°26' E 139°48'612.3
2018-Jun-23 22:00N 35°21' E 139°45'510.8
2018-Jun-23 21:30N 35°15' E 139°47'611.7
2018-Jun-23 21:00N 35°10' E 139°46'4 0.1
2018-Jun-22 06:01N 35°07' E 139°43'014.4
2018-Jun-22 06:01N 35°07' E 139°43'812.9
2018-Jun-22 05:25N 35°14' E 139°46'513.1
2018-Jun-22 05:00N 35°19' E 139°43'612.3
2018-Jun-22 04:31N 35°25' E 139°44'713.2
2018-Jun-22 04:01N 35°30' E 139°48'1 2.7
2018-Jun-22 03:28N 35°32' E 139°48'0 0.0
2018-Jun-22 02:58N 35°32' E 139°48'0 0.0
2018-Jun-22 02:28N 35°32' E 139°48'0 0.0
2018-Jun-22 01:58N 35°32' E 139°48'0 0.0
2018-Jun-22 01:28N 35°32' E 139°48'0 0.0
2018-Jun-22 00:58N 35°32' E 139°48'0 0.0
2018-Jun-22 00:28N 35°32' E 139°48'0 0.0
2018-Jun-21 23:58N 35°32' E 139°48'1 3.1
2018-Jun-21 23:30N 35°31' E 139°49'1 1.5
2018-Jun-21 22:54N 35°31' E 139°50'0 0.0
2018-Jun-21 21:51N 35°31' E 139°50'0 0.0
2018-Jun-21 21:30N 35°31' E 139°50'1 1.4
2018-Jun-21 21:00N 35°30' E 139°50'4 7.3
2018-Jun-21 20:30N 35°27' E 139°47'612.1
2018-Jun-21 20:00N 35°22' E 139°45'510.7
2018-Jun-21 19:30N 35°16' E 139°46'611.4
2018-Jun-21 19:00N 35°11' E 139°47'612.0
2018-Jun-21 18:29N 35°05' E 139°44'  
2018-Jun-17 09:19N 35°05' E 139°37'613.7
2018-Jun-17 08:51N 35°09' E 139°43'513.4
2018-Jun-17 08:31N 35°13' E 139°46'612.1
2018-Jun-17 08:00N 35°18' E 139°44'612.1
2018-Jun-17 07:30N 35°24' E 139°43'613.0
2018-Jun-17 07:00N 35°29' E 139°48'2 0.5
2018-Jun-17 02:19N 35°32' E 139°48'1 3.1
2018-Jun-17 02:00N 35°31' E 139°48'2 3.3
2018-Jun-17 01:29N 35°30' E 139°50'0 0.0
2018-Jun-17 00:19N 35°30' E 139°50'0 0.1
2018-Jun-16 23:56N 35°30' E 139°50'0 0.1
2018-Jun-16 23:26N 35°30' E 139°50'4 9.2
2018-Jun-16 23:00N 35°27' E 139°48'612.0
2018-Jun-16 22:30N 35°21' E 139°45'510.5
2018-Jun-16 22:00N 35°16' E 139°46'611.5
2018-Jun-16 21:30N 35°11' E 139°46'  
Track history (hours):
 
Tides and Currents Weather Stations Pressure Air Temp Water Temp Dewpoint Dewpoint Depression Visibility Wind Speed Wind Dir Waves Ship Positions

Sanko Maru

Last reported at 2018-Jun-24 10:00 UTC. Time now 2018-Jun-25 05:49 UTC.
Position N 34°58' E 139°23'.

Length 104 m; draft 5 m.

Type: Ship (hazmat cat A). MMSI: 431100146.

Date/timePositionNaut miles runAvg speedWind from/ knotsBaromVisibWave heightAir tempDewpointWater temp
2018-Jun-24 10:00N 34°58' E 139°23'611.3
2018-Jun-24 09:29N 35°01' E 139°29'611.6
2018-Jun-24 09:00N 35°04' E 139°35'612.3
2018-Jun-24 08:30N 35°07' E 139°41'612.3
2018-Jun-24 08:00N 35°12' E 139°46'612.1
2018-Jun-24 07:30N 35°18' E 139°44'612.6
2018-Jun-24 07:00N 35°24' E 139°43'713.3
2018-Jun-24 06:30N 35°28' E 139°49'713.5
2018-Jun-24 05:59N 35°32' E 139°56'2 0.4
2018-Jun-23 23:26N 35°33' E 139°59'512.2
2018-Jun-23 23:00N 35°30' E 139°54'612.6
2018-Jun-23 22:30N 35°26' E 139°48'612.3
2018-Jun-23 22:00N 35°21' E 139°45'510.8
2018-Jun-23 21:30N 35°15' E 139°47'611.7
2018-Jun-23 21:00N 35°10' E 139°46'4 0.1
2018-Jun-22 06:01N 35°07' E 139°43'014.4
2018-Jun-22 06:01N 35°07' E 139°43'812.9
2018-Jun-22 05:25N 35°14' E 139°46'513.1
2018-Jun-22 05:00N 35°19' E 139°43'612.3
2018-Jun-22 04:31N 35°25' E 139°44'713.2
2018-Jun-22 04:01N 35°30' E 139°48'1 2.7
2018-Jun-22 03:28N 35°32' E 139°48'0 0.0
2018-Jun-22 02:58N 35°32' E 139°48'0 0.0
2018-Jun-22 02:28N 35°32' E 139°48'0 0.0
2018-Jun-22 01:58N 35°32' E 139°48'0 0.0
2018-Jun-22 01:28N 35°32' E 139°48'0 0.0
2018-Jun-22 00:58N 35°32' E 139°48'0 0.0
2018-Jun-22 00:28N 35°32' E 139°48'0 0.0
2018-Jun-21 23:58N 35°32' E 139°48'1 3.1
2018-Jun-21 23:30N 35°31' E 139°49'1 1.5
2018-Jun-21 22:54N 35°31' E 139°50'0 0.0
2018-Jun-21 21:51N 35°31' E 139°50'0 0.0
2018-Jun-21 21:30N 35°31' E 139°50'1 1.4
2018-Jun-21 21:00N 35°30' E 139°50'4 7.3
2018-Jun-21 20:30N 35°27' E 139°47'612.1
2018-Jun-21 20:00N 35°22' E 139°45'510.7
2018-Jun-21 19:30N 35°16' E 139°46'611.4
2018-Jun-21 19:00N 35°11' E 139°47'612.0
2018-Jun-21 18:29N 35°05' E 139°44'  
2018-Jun-17 09:19N 35°05' E 139°37'613.7
2018-Jun-17 08:51N 35°09' E 139°43'513.4
2018-Jun-17 08:31N 35°13' E 139°46'612.1
2018-Jun-17 08:00N 35°18' E 139°44'612.1
2018-Jun-17 07:30N 35°24' E 139°43'613.0
2018-Jun-17 07:00N 35°29' E 139°48'2 0.5
2018-Jun-17 02:19N 35°32' E 139°48'1 3.1
2018-Jun-17 02:00N 35°31' E 139°48'2 3.3
2018-Jun-17 01:29N 35°30' E 139°50'0 0.0
2018-Jun-17 00:19N 35°30' E 139°50'0 0.1
2018-Jun-16 23:56N 35°30' E 139°50'0 0.1
2018-Jun-16 23:26N 35°30' E 139°50'4 9.2
2018-Jun-16 23:00N 35°27' E 139°48'612.0
2018-Jun-16 22:30N 35°21' E 139°45'510.5
2018-Jun-16 22:00N 35°16' E 139°46'611.5
2018-Jun-16 21:30N 35°11' E 139°46'  

Dump ship's entire track history